createdAt,value
2018-08-22T00:01:36.183Z,65.07
2018-08-22T00:04:03.451Z,65.96
2018-08-22T00:06:30.756Z,66.62
2018-08-22T00:08:58.024Z,67.11
2018-08-22T00:11:25.222Z,67.40
2018-08-22T00:13:52.487Z,67.88
2018-08-22T00:16:22.687Z,68.25
2018-08-22T00:21:40.296Z,68.34
2018-08-22T00:24:07.543Z,69.02
2018-08-22T00:26:34.764Z,69.07
2018-08-22T00:29:02.046Z,69.19
2018-08-22T00:31:29.368Z,69.71
2018-08-22T00:33:56.605Z,69.65
2018-08-22T00:36:23.838Z,68.53
2018-08-22T00:38:51.088Z,69.06
2018-08-22T00:41:18.342Z,69.62
2018-08-22T00:43:45.591Z,69.87
2018-08-22T00:46:12.826Z,70.06
2018-08-22T00:48:40.093Z,69.27
2018-08-22T00:51:07.320Z,70.12
2018-08-22T00:53:34.604Z,70.41
2018-08-22T00:56:01.883Z,70.57
2018-08-22T00:58:29.089Z,69.64
2018-08-22T01:00:56.350Z,69.78
2018-08-22T01:03:23.610Z,70.69
2018-08-22T01:05:50.866Z,71.51
2018-08-22T01:08:18.320Z,72.00
2018-08-22T01:10:45.550Z,72.59
2018-08-22T01:13:12.806Z,72.52
2018-08-22T01:15:40.038Z,72.01
2018-08-22T01:18:07.310Z,72.36
2018-08-22T01:20:34.914Z,73.44
2018-08-22T01:23:04.318Z,72.86
2018-08-22T01:25:31.559Z,74.44
2018-08-22T01:27:58.840Z,75.21
2018-08-22T01:30:26.038Z,74.71
2018-08-22T01:32:53.294Z,74.23
2018-08-22T01:35:20.537Z,73.59
2018-08-22T01:37:47.780Z,73.59
2018-08-22T01:40:15.015Z,73.31
2018-08-22T01:42:42.254Z,73.63
2018-08-22T01:45:09.507Z,73.86
2018-08-22T01:47:36.755Z,73.95
2018-08-22T01:50:03.991Z,73.72
2018-08-22T01:52:31.225Z,74.06
2018-08-22T01:54:58.462Z,73.59
2018-08-22T01:57:25.690Z,73.49
2018-08-22T01:59:52.938Z,73.52
2018-08-22T02:02:20.162Z,73.39
2018-08-22T02:04:47.422Z,73.36
2018-08-22T02:07:14.651Z,73.44
2018-08-22T02:09:41.907Z,73.05
2018-08-22T02:12:09.114Z,73.75
2018-08-22T02:14:36.365Z,72.85
2018-08-22T02:17:03.683Z,73.60
2018-08-22T02:19:30.962Z,75.60
2018-08-22T02:21:58.192Z,75.48
2018-08-22T02:24:25.419Z,75.54
2018-08-22T02:26:52.689Z,75.32
2018-08-22T02:29:19.959Z,74.47
2018-08-22T02:31:49.440Z,74.55
2018-08-22T02:34:16.702Z,74.73
2018-08-22T02:36:43.979Z,74.46
2018-08-22T02:39:11.240Z,74.43
2018-08-22T02:41:38.500Z,74.43
2018-08-22T02:44:05.792Z,74.09
2018-08-22T02:46:33.015Z,74.18
2018-08-22T02:49:00.283Z,74.18
2018-08-22T02:51:27.503Z,74.06
2018-08-22T02:53:54.765Z,73.43
2018-08-22T02:56:22.587Z,73.56
2018-08-22T02:58:50.068Z,73.54
2018-08-22T03:01:17.412Z,72.61
2018-08-22T03:03:44.738Z,72.17
2018-08-22T03:06:11.973Z,72.71
2018-08-22T03:08:39.243Z,73.23
2018-08-22T03:11:06.516Z,73.38
2018-08-22T03:13:33.782Z,73.32
2018-08-22T03:16:01.003Z,72.95
2018-08-22T03:18:29.295Z,72.59
2018-08-22T03:20:58.075Z,72.78
2018-08-22T03:23:26.237Z,72.76
2018-08-22T03:26:03.444Z,73.47
2018-08-22T03:28:40.788Z,73.84
2018-08-22T03:31:18.523Z,72.98
2018-08-22T03:33:45.765Z,73.50
2018-08-22T03:36:13.049Z,73.94
2018-08-22T03:38:40.320Z,74.20
2018-08-22T03:41:07.577Z,74.86
2018-08-22T03:43:34.823Z,74.17
2018-08-22T03:46:02.122Z,74.61
2018-08-22T03:48:29.386Z,74.41
2018-08-22T03:50:57.894Z,74.45
2018-08-22T03:53:25.156Z,74.90
2018-08-22T03:55:52.430Z,75.95
2018-08-22T03:58:19.797Z,76.07
2018-08-22T04:00:47.112Z,76.46
2018-08-22T04:03:14.438Z,75.53
2018-08-22T04:05:41.823Z,76.75
2018-08-22T04:08:09.808Z,76.07
2018-08-22T04:10:37.191Z,76.76
2018-08-22T04:13:07.844Z,77.06
2018-08-22T04:15:35.263Z,76.18
2018-08-22T04:18:05.095Z,76.73
2018-08-22T04:20:32.506Z,77.44
2018-08-22T04:22:59.858Z,76.96
2018-08-22T04:25:27.230Z,76.81
2018-08-22T04:27:55.194Z,76.69
2018-08-22T04:30:22.592Z,76.36
2018-08-22T04:32:50.036Z,75.44
2018-08-22T04:35:17.485Z,75.32
2018-08-22T04:37:44.788Z,75.29
2018-08-22T04:40:12.209Z,75.29
2018-08-22T04:42:40.098Z,74.93
2018-08-22T04:45:08.529Z,74.93
2018-08-22T04:47:35.848Z,74.41
2018-08-22T04:50:03.289Z,74.41
2018-08-22T04:52:30.603Z,74.05
2018-08-22T04:54:58.158Z,72.87
2018-08-22T04:57:25.538Z,72.34
2018-08-22T04:59:52.903Z,72.52
2018-08-22T05:02:20.277Z,72.03
2018-08-22T05:04:47.620Z,71.79
2018-08-22T05:07:15.038Z,71.38
2018-08-22T05:09:42.528Z,71.08
2018-08-22T05:12:09.841Z,70.66
2018-08-22T05:14:37.191Z,70.59
2018-08-22T05:17:05.090Z,69.95
2018-08-22T05:19:32.500Z,69.54
2018-08-22T05:21:59.840Z,69.04
2018-08-22T05:24:27.944Z,68.81
2018-08-22T05:26:55.267Z,68.72
2018-08-22T05:29:22.630Z,68.45
2018-08-22T05:31:49.957Z,68.09
2018-08-22T05:34:17.360Z,67.54
2018-08-22T05:36:44.758Z,67.41
2018-08-22T05:39:12.913Z,67.20
2018-08-22T05:41:40.671Z,67.45
2018-08-22T05:44:08.303Z,67.53
2018-08-22T05:46:35.685Z,66.67
2018-08-22T05:49:04.162Z,66.93
2018-08-22T05:51:31.610Z,66.40
2018-08-22T05:53:58.998Z,65.81
2018-08-22T05:56:26.311Z,65.44
2018-08-22T05:58:53.634Z,64.61
2018-08-22T06:01:21.001Z,63.93
2018-08-22T06:03:48.329Z,63.83
2018-08-22T06:06:15.799Z,63.70
2018-08-22T06:08:43.236Z,63.05
2018-08-22T06:11:10.709Z,62.64
2018-08-22T06:13:38.100Z,62.25
2018-08-22T06:16:05.671Z,62.20
2018-08-22T06:18:33.221Z,61.29
2018-08-22T06:21:00.694Z,61.18
2018-08-22T06:23:28.281Z,60.72
2018-08-22T06:25:57.453Z,60.34
2018-08-22T06:28:24.963Z,59.83
2018-08-22T06:30:53.444Z,59.96
2018-08-22T06:33:21.394Z,59.81
2018-08-22T06:35:48.777Z,59.36
2018-08-22T06:38:31.980Z,59.52
2018-08-22T06:40:59.800Z,59.29
2018-08-22T06:43:27.181Z,58.27
2018-08-22T06:45:54.793Z,57.32
2018-08-22T06:48:22.403Z,56.68
2018-08-22T06:50:49.736Z,55.58
2018-08-22T06:53:17.087Z,55.66
2018-08-22T06:55:44.417Z,55.11
2018-08-22T06:58:11.784Z,54.06
2018-08-22T07:00:39.130Z,53.33
2018-08-22T07:03:06.466Z,51.50
2018-08-22T07:05:33.770Z,49.32
2018-08-22T07:08:01.135Z,48.14
2018-08-22T07:10:29.295Z,47.34
2018-08-22T07:12:57.738Z,47.34
2018-08-22T07:15:30.175Z,47.76
2018-08-22T07:18:11.407Z,48.94
2018-08-22T07:20:52.800Z,48.54
2018-08-22T07:23:30.814Z,49.61
2018-08-22T07:26:03.823Z,49.18
2018-08-22T07:28:35.452Z,50.55
2018-08-22T07:31:07.960Z,51.16
2018-08-22T07:33:39.940Z,50.89
2018-08-22T07:36:12.295Z,50.60
2018-08-22T07:38:45.274Z,49.78
2018-08-22T07:41:16.402Z,49.18
2018-08-22T07:43:43.872Z,48.83
2018-08-22T07:46:11.939Z,48.54
2018-08-22T07:48:39.324Z,48.65
2018-08-22T07:51:06.855Z,49.00
2018-08-22T07:53:34.207Z,48.17
2018-08-22T07:56:01.562Z,48.98
2018-08-22T07:58:28.895Z,48.04
2018-08-22T08:00:57.544Z,48.05
2018-08-22T08:03:24.925Z,47.90
2018-08-22T08:05:52.288Z,47.36
2018-08-22T08:08:19.629Z,47.21
2018-08-22T08:10:47.515Z,46.80
2018-08-22T08:13:20.458Z,46.69
2018-08-22T08:15:47.807Z,47.20
2018-08-22T08:18:15.346Z,47.26
2018-08-22T08:20:42.741Z,47.20
2018-08-22T08:23:10.368Z,47.30
2018-08-22T08:25:37.740Z,46.03
2018-08-22T08:28:05.830Z,45.73
2018-08-22T08:30:33.304Z,45.23
2018-08-22T08:33:00.633Z,44.89
2018-08-22T08:35:27.985Z,45.27
2018-08-22T08:37:55.469Z,45.12
2018-08-22T08:40:22.848Z,44.60
2018-08-22T08:42:50.383Z,44.55
2018-08-22T08:45:17.803Z,44.21
2018-08-22T08:47:45.195Z,43.73
2018-08-22T08:50:13.451Z,42.89
2018-08-22T08:52:41.131Z,43.63
2018-08-22T08:55:09.437Z,42.60
2018-08-22T08:57:36.932Z,40.83
2018-08-22T09:00:04.718Z,39.01
2018-08-22T09:02:32.132Z,38.31
2018-08-22T09:05:06.231Z,38.09
2018-08-22T09:07:33.739Z,37.03
2018-08-22T09:10:01.219Z,36.25
2018-08-22T09:12:28.967Z,36.02
2018-08-22T09:17:23.651Z,35.82
2018-08-22T09:19:50.985Z,35.54
2018-08-22T09:22:18.461Z,35.57
2018-08-22T09:24:45.852Z,34.79
2018-08-22T09:27:13.176Z,33.71
2018-08-22T09:29:40.626Z,33.07
2018-08-22T09:32:08.023Z,32.58
2018-08-22T09:34:35.358Z,31.96
2018-08-22T09:37:04.950Z,32.03
2018-08-22T09:39:32.376Z,31.50
2018-08-22T09:41:59.649Z,31.94
2018-08-22T09:44:27.022Z,31.93
2018-08-22T09:46:54.450Z,31.23
2018-08-22T09:49:22.313Z,31.63
2018-08-22T09:51:49.631Z,31.28
2018-08-22T09:54:16.971Z,31.92
2018-08-22T09:56:44.327Z,31.05
2018-08-22T09:59:11.659Z,29.95
2018-08-22T10:01:41.078Z,29.99
2018-08-22T10:04:08.861Z,28.94
2018-08-22T10:06:43.378Z,28.51
2018-08-22T10:09:12.408Z,27.79
2018-08-22T10:11:39.703Z,28.27
2018-08-22T10:14:07.706Z,28.31
2018-08-22T10:16:35.305Z,26.92
2018-08-22T10:19:03.917Z,27.83
2018-08-22T10:21:31.272Z,27.60
2018-08-22T10:23:58.603Z,27.53
2018-08-22T10:26:26.002Z,26.81
2018-08-22T10:28:53.917Z,27.67
2018-08-22T10:31:21.815Z,28.33
2018-08-22T10:33:49.102Z,28.01
2018-08-22T10:36:17.019Z,27.38
2018-08-22T10:38:44.390Z,26.99
2018-08-22T10:41:11.759Z,27.19
2018-08-22T10:43:39.253Z,27.10
2018-08-22T10:46:07.214Z,26.85
2018-08-22T10:48:35.259Z,28.41
2018-08-22T10:51:03.315Z,28.50
2018-08-22T10:53:30.657Z,27.37
2018-08-22T10:55:58.090Z,26.80
2018-08-22T10:58:25.454Z,27.02
2018-08-22T11:00:52.936Z,28.28
2018-08-22T11:03:20.278Z,27.75
2018-08-22T11:05:47.646Z,27.14
2018-08-22T11:08:14.960Z,27.20
2018-08-22T11:10:42.377Z,26.06
2018-08-22T11:13:09.735Z,27.26
2018-08-22T11:15:37.765Z,27.10
2018-08-22T11:18:06.055Z,25.89
2018-08-22T11:20:33.292Z,26.35
2018-08-22T11:23:12.329Z,26.96
2018-08-22T11:25:51.343Z,26.31
2018-08-22T11:28:30.295Z,26.00
2018-08-22T11:31:09.175Z,25.67
2018-08-22T11:33:48.464Z,25.80
2018-08-22T11:36:14.770Z,26.58
2018-08-22T11:38:42.107Z,25.82
2018-08-22T11:41:09.815Z,25.54
2018-08-22T11:43:37.660Z,26.20
2018-08-22T11:46:05.128Z,25.99
2018-08-22T11:48:32.541Z,25.69
2018-08-22T11:51:00.110Z,25.42
2018-08-22T11:53:27.535Z,25.85
2018-08-22T11:55:55.004Z,25.65
2018-08-22T11:58:23.172Z,25.24
2018-08-22T12:00:50.767Z,25.12
2018-08-22T12:03:18.234Z,25.15
2018-08-22T12:05:45.692Z,24.91
2018-08-22T12:08:13.299Z,24.91
2018-08-22T12:10:40.725Z,24.26
2018-08-22T12:13:07.993Z,23.63
2018-08-22T12:15:35.875Z,23.58
2018-08-22T12:18:03.379Z,25.35
2018-08-22T12:20:31.123Z,25.51
2018-08-22T12:22:58.528Z,25.56
2018-08-22T12:25:25.881Z,25.41
2018-08-22T12:27:53.233Z,24.52
2018-08-22T12:30:20.847Z,24.13
2018-08-22T12:32:48.184Z,24.42
2018-08-22T12:35:15.543Z,24.60
2018-08-22T12:37:42.914Z,24.67
2018-08-22T12:40:10.304Z,24.68
2018-08-22T12:42:37.961Z,23.74
2018-08-22T12:45:06.192Z,23.91
2018-08-22T12:47:33.516Z,23.54
2018-08-22T12:50:00.896Z,24.24
2018-08-22T12:52:28.238Z,24.17
2018-08-22T12:54:55.631Z,23.48
2018-08-22T12:57:22.988Z,24.52
2018-08-22T12:59:50.278Z,24.88
2018-08-22T13:02:17.622Z,25.86
2018-08-22T13:04:44.993Z,23.97
2018-08-22T13:07:16.402Z,24.76
2018-08-22T13:09:43.749Z,24.67
2018-08-22T13:12:11.812Z,23.80
2018-08-22T13:14:49.398Z,22.92
2018-08-22T13:17:26.082Z,23.18
2018-08-22T13:19:53.485Z,23.46
2018-08-22T13:22:20.839Z,24.15
2018-08-22T13:24:48.252Z,23.89
2018-08-22T13:27:15.520Z,24.62
2018-08-22T13:29:43.057Z,23.49
2018-08-22T13:32:10.858Z,24.17
2018-08-22T13:34:38.210Z,24.01
2018-08-22T13:37:06.322Z,23.94
2018-08-22T13:39:33.631Z,23.67
2018-08-22T13:42:03.050Z,24.45
2018-08-22T13:44:31.093Z,25.03
2018-08-22T13:46:59.337Z,24.57
2018-08-22T13:49:26.721Z,24.48
2018-08-22T13:51:54.107Z,24.92
2018-08-22T13:54:22.285Z,25.35
2018-08-22T13:56:49.686Z,25.77
2018-08-22T13:59:17.612Z,25.20
2018-08-22T14:01:45.067Z,25.76
2018-08-22T14:04:12.441Z,26.79
2018-08-22T14:06:39.906Z,26.23
2018-08-22T14:09:09.924Z,27.36
2018-08-22T14:11:37.381Z,27.69
2018-08-22T14:14:04.930Z,26.94
2018-08-22T14:16:32.293Z,26.91
2018-08-22T14:18:59.654Z,27.32
2018-08-22T14:21:29.204Z,27.47
2018-08-22T14:23:56.616Z,27.64
2018-08-22T14:26:24.551Z,28.13
2018-08-22T14:28:52.193Z,27.90
2018-08-22T14:31:19.752Z,27.88
2018-08-22T14:33:47.210Z,28.59
2018-08-22T14:36:14.495Z,27.81
2018-08-22T14:38:42.792Z,28.03
2018-08-22T14:41:10.228Z,28.06
2018-08-22T14:43:38.799Z,28.55
2018-08-22T14:46:06.123Z,28.55
2018-08-22T14:48:33.430Z,28.16
2018-08-22T14:51:01.321Z,27.46
2018-08-22T14:53:28.691Z,27.87
2018-08-22T14:55:57.135Z,27.82
2018-08-22T14:58:24.687Z,28.19
2018-08-22T15:00:52.288Z,28.10
2018-08-22T15:03:19.919Z,27.63
2018-08-22T15:05:47.123Z,28.16
2018-08-22T15:08:14.490Z,28.18
2018-08-22T15:10:46.118Z,27.86
2018-08-22T15:13:14.302Z,27.81
2018-08-22T15:15:41.689Z,28.18
2018-08-22T15:18:09.093Z,27.83
2018-08-22T15:20:37.363Z,27.80
2018-08-22T15:23:05.868Z,28.19
2018-08-22T15:25:33.555Z,28.21
2018-08-22T15:28:00.949Z,28.47
2018-08-22T15:30:28.335Z,28.96
2018-08-22T15:32:55.742Z,28.61
2018-08-22T15:35:23.437Z,28.56
2018-08-22T15:37:50.982Z,28.37
2018-08-22T15:40:20.585Z,28.81
2018-08-22T15:42:49.425Z,29.18
2018-08-22T15:45:16.870Z,28.83
2018-08-22T15:47:44.419Z,28.99
2018-08-22T15:50:12.247Z,28.97
2018-08-22T15:52:39.915Z,28.94
2018-08-22T15:55:14.562Z,29.53
2018-08-22T15:58:00.103Z,29.42
2018-08-22T16:00:38.868Z,29.47
2018-08-22T16:03:07.457Z,29.45
2018-08-22T16:05:35.778Z,29.54
2018-08-22T16:08:03.677Z,29.49
2018-08-22T16:10:33.132Z,29.17
2018-08-22T16:13:01.119Z,29.40
2018-08-22T16:15:34.764Z,29.57
2018-08-22T16:18:07.712Z,30.53
2018-08-22T16:21:08.453Z,30.17
2018-08-22T16:23:35.887Z,30.59
2018-08-22T16:26:04.170Z,30.59
2018-08-22T16:28:43.495Z,30.44
2018-08-22T16:31:11.078Z,30.74
2018-08-22T16:33:38.432Z,30.14
2018-08-22T16:36:06.182Z,30.53
2018-08-22T16:38:33.558Z,30.25
2018-08-22T16:41:00.861Z,30.40
2018-08-22T16:43:40.506Z,30.67
2018-08-22T16:46:09.697Z,30.96
2018-08-22T16:48:37.501Z,30.59
2018-08-22T16:51:04.978Z,31.33
2018-08-22T16:53:32.827Z,31.32
2018-08-22T16:56:00.152Z,30.82
2018-08-22T16:58:27.529Z,31.13
2018-08-22T17:00:54.836Z,31.08
2018-08-22T17:03:22.224Z,31.33
2018-08-22T17:05:50.161Z,31.49
2018-08-22T17:08:18.158Z,31.03
2018-08-22T17:10:52.963Z,31.76
2018-08-22T17:13:26.551Z,31.96
2018-08-22T17:16:01.225Z,31.48
2018-08-22T17:18:28.753Z,31.71
2018-08-22T17:20:56.606Z,32.06
2018-08-22T17:23:24.536Z,31.66
2018-08-22T17:25:51.858Z,32.59
2018-08-22T17:28:24.899Z,32.90
2018-08-22T17:30:52.231Z,32.88
2018-08-22T17:33:19.712Z,32.76
2018-08-22T17:35:47.088Z,32.78
2018-08-22T17:38:14.448Z,32.89
2018-08-22T17:40:42.127Z,33.57
2018-08-22T17:43:09.777Z,33.82
2018-08-22T17:45:38.357Z,33.83
2018-08-22T17:48:07.037Z,33.88
2018-08-22T17:50:34.387Z,34.33
2018-08-22T17:53:05.974Z,34.69
2018-08-22T17:55:33.417Z,34.80
2018-08-22T17:58:01.413Z,34.82
2018-08-22T18:00:31.937Z,35.40
2018-08-22T18:03:01.221Z,35.29
2018-08-22T18:05:29.672Z,35.67
2018-08-22T18:07:57.853Z,36.28
2018-08-22T18:10:25.721Z,36.05
2018-08-22T18:12:54.335Z,36.55
2018-08-22T18:15:22.053Z,36.57
2018-08-22T18:17:49.511Z,37.93
2018-08-22T18:20:17.975Z,38.08
2018-08-22T18:22:46.185Z,38.55
2018-08-22T18:25:13.831Z,38.84
2018-08-22T18:27:41.442Z,39.23
2018-08-22T18:30:11.628Z,39.45
2018-08-22T18:32:39.163Z,39.62
2018-08-22T18:35:08.968Z,39.90
2018-08-22T18:37:36.632Z,40.27
2018-08-22T18:40:19.050Z,40.44
2018-08-22T18:42:50.355Z,39.97
2018-08-22T18:45:18.314Z,40.04
2018-08-22T18:47:46.295Z,40.59
2018-08-22T18:50:45.797Z,40.37
2018-08-22T18:53:15.075Z,40.47
2018-08-22T18:55:42.555Z,40.59
2018-08-22T18:58:10.518Z,40.28
2018-08-22T19:00:38.429Z,40.71
2018-08-22T19:03:05.867Z,40.84
2018-08-22T19:05:34.598Z,40.42
2018-08-22T19:08:12.468Z,40.85
2018-08-22T19:10:41.099Z,40.92
2018-08-22T19:13:14.099Z,40.72
2018-08-22T19:15:41.648Z,40.27
2018-08-22T19:18:09.789Z,40.35
2018-08-22T19:20:38.268Z,40.86
2018-08-22T19:23:05.615Z,40.56
2018-08-22T19:25:33.400Z,40.57
2018-08-22T19:28:01.285Z,40.57
2018-08-22T19:30:29.463Z,40.62
2018-08-22T19:32:56.975Z,40.79
2018-08-22T19:35:24.370Z,40.51
2018-08-22T19:37:57.264Z,40.99
2018-08-22T19:40:26.264Z,40.97
2018-08-22T19:42:53.619Z,41.50
2018-08-22T19:45:20.973Z,42.01
2018-08-22T19:47:48.348Z,42.05
2018-08-22T19:50:15.683Z,42.42
2018-08-22T19:52:43.043Z,42.39
2018-08-22T19:55:10.375Z,43.04
2018-08-22T19:57:39.151Z,43.84
2018-08-22T20:00:12.890Z,44.18
2018-08-22T20:02:40.379Z,44.17
2018-08-22T20:05:09.598Z,44.60
2018-08-22T20:07:37.344Z,44.36
2018-08-22T20:10:04.850Z,44.50
2018-08-22T20:12:42.650Z,44.47
2018-08-22T20:15:10.046Z,44.14
2018-08-22T20:17:37.608Z,43.85
2018-08-22T20:20:15.570Z,43.68
2018-08-22T20:22:46.016Z,43.19
2018-08-22T20:25:13.758Z,43.01
2018-08-22T20:27:41.804Z,43.01
2018-08-22T20:30:11.957Z,42.53
2018-08-22T20:33:00.121Z,42.14
2018-08-22T20:35:32.336Z,42.65
2018-08-22T20:38:01.647Z,42.65
2018-08-22T20:40:29.147Z,42.43
2018-08-22T20:42:56.509Z,42.55
2018-08-22T20:45:29.279Z,42.06
2018-08-22T20:48:02.134Z,42.01
2018-08-22T20:50:29.391Z,42.33
2018-08-22T20:53:00.056Z,42.62
2018-08-22T20:55:27.580Z,42.40
2018-08-22T20:57:54.823Z,42.26
2018-08-22T21:00:23.858Z,42.08
2018-08-22T21:02:51.883Z,42.18
2018-08-22T21:05:19.207Z,42.55
2018-08-22T21:07:46.475Z,42.69
2018-08-22T21:10:13.912Z,42.72
2018-08-22T21:12:41.248Z,43.19
2018-08-22T21:15:08.487Z,43.22
2018-08-22T21:17:35.740Z,43.06
2018-08-22T21:20:09.616Z,42.56
2018-08-22T21:22:36.895Z,42.28
2018-08-22T21:25:04.517Z,42.22
2018-08-22T21:27:31.805Z,41.62
2018-08-22T21:29:59.029Z,41.96
2018-08-22T21:32:26.275Z,41.51
2018-08-22T21:34:53.492Z,41.25
2018-08-22T21:37:29.324Z,41.73
2018-08-22T21:39:56.606Z,41.41
2018-08-22T21:42:33.205Z,40.97
2018-08-22T21:45:00.821Z,41.21
2018-08-22T21:47:28.116Z,41.02
2018-08-22T21:54:53.730Z,41.24
2018-08-22T21:57:21.007Z,42.21
2018-08-22T21:59:55.577Z,41.97
2018-08-22T22:02:22.849Z,42.66
2018-08-22T22:04:50.138Z,42.93
2018-08-22T22:07:17.551Z,42.59
2018-08-22T22:09:44.772Z,43.15
2018-08-22T22:12:17.651Z,42.70
2018-08-22T22:14:45.202Z,43.14
2018-08-22T22:17:15.296Z,43.28
2018-08-22T22:19:42.613Z,42.94
2018-08-22T22:22:09.842Z,43.26
2018-08-22T22:24:45.592Z,42.62
2018-08-22T22:27:12.842Z,42.88
2018-08-22T22:29:40.102Z,42.91
2018-08-22T22:32:07.373Z,42.83
2018-08-22T22:34:34.623Z,42.34
2018-08-22T22:37:01.888Z,41.95
2018-08-22T22:39:36.862Z,42.47
2018-08-22T22:42:16.278Z,42.44
2018-08-22T22:44:45.998Z,42.30
2018-08-22T22:47:18.818Z,42.37
2018-08-22T22:49:46.281Z,43.28
2018-08-22T22:52:23.646Z,43.58
2018-08-22T22:54:53.395Z,44.03
2018-08-22T22:57:20.726Z,44.23
2018-08-22T22:59:48.179Z,45.18
2018-08-22T23:02:15.591Z,45.05
2018-08-22T23:04:46.066Z,45.06
2018-08-22T23:07:19.448Z,45.60
2018-08-22T23:09:50.251Z,46.28
2018-08-22T23:12:17.943Z,46.32
2018-08-22T23:14:45.199Z,47.13
2018-08-22T23:17:12.438Z,47.36
2018-08-22T23:19:39.859Z,47.98
2018-08-22T23:22:07.103Z,48.25
2018-08-22T23:24:34.352Z,48.62
2018-08-22T23:27:01.595Z,48.93
2018-08-22T23:29:28.847Z,49.36
2018-08-22T23:31:56.054Z,49.45
2018-08-22T23:34:23.437Z,49.83
2018-08-22T23:36:50.659Z,50.17
2018-08-22T23:39:17.977Z,50.09
2018-08-22T23:41:45.192Z,49.97
2018-08-22T23:44:12.436Z,50.46
2018-08-22T23:46:39.663Z,50.76
2018-08-22T23:49:06.909Z,50.84
2018-08-22T23:51:34.133Z,51.07
2018-08-22T23:54:01.390Z,51.31
2018-08-22T23:56:29.766Z,51.53
2018-08-22T23:58:57.562Z,51.99
